createdAt,value
2023-02-11T00:00:19.596Z,12.10
2023-02-11T00:02:48.004Z,10.20
2023-02-11T00:05:15.192Z,9.50
2023-02-11T00:07:42.067Z,9.70
2023-02-11T00:10:09.315Z,10.30
2023-02-11T00:12:37.228Z,10.10
2023-02-11T00:15:05.757Z,12.00
2023-02-11T00:17:33.198Z,12.20
2023-02-11T00:20:00.915Z,11.50
2023-02-11T00:22:27.844Z,11.90
2023-02-11T00:24:54.865Z,10.60
2023-02-11T00:27:21.528Z,10.50
2023-02-11T00:29:48.190Z,11.30
2023-02-11T00:32:14.922Z,11.20
2023-02-11T00:34:47.740Z,11.20
2023-02-11T00:37:14.468Z,11.10
2023-02-11T00:39:41.181Z,10.50
2023-02-11T00:42:16.852Z,9.90
2023-02-11T00:44:43.568Z,10.40
2023-02-11T00:47:10.225Z,9.70
2023-02-11T00:49:37.022Z,10.80
2023-02-11T00:52:04.028Z,10.90
2023-02-11T00:54:30.741Z,10.70
2023-02-11T00:56:57.409Z,10.60
2023-02-11T00:59:24.173Z,10.30
2023-02-11T01:01:50.949Z,9.70
2023-02-11T01:04:17.864Z,9.40
2023-02-11T01:06:45.600Z,9.90
2023-02-11T01:09:12.343Z,9.90
2023-02-11T01:11:39.092Z,10.00
2023-02-11T01:14:05.820Z,10.20
2023-02-11T01:16:32.744Z,10.00
2023-02-11T01:18:59.535Z,10.40
2023-02-11T01:21:26.443Z,10.30
2023-02-11T01:23:53.299Z,11.70
2023-02-11T01:26:20.150Z,10.20
2023-02-11T01:28:46.960Z,10.60
2023-02-11T01:31:14.132Z,10.10
2023-02-11T01:33:41.412Z,9.50
2023-02-11T01:36:08.812Z,10.70
2023-02-11T01:38:35.757Z,10.40
2023-02-11T01:41:05.331Z,9.90
2023-02-11T01:43:38.238Z,11.10
2023-02-11T01:46:28.114Z,10.40
2023-02-11T01:49:11.781Z,10.30
2023-02-11T01:51:47.859Z,10.00
2023-02-11T01:54:38.362Z,9.60
2023-02-11T01:57:24.930Z,9.40
2023-02-11T02:00:15.465Z,8.80
2023-02-11T02:03:00.310Z,8.80
2023-02-11T02:05:42.747Z,8.40
2023-02-11T02:08:21.378Z,8.10
2023-02-11T02:10:56.465Z,8.40
2023-02-11T02:13:24.590Z,8.80
2023-02-11T02:15:59.464Z,8.80
2023-02-11T02:18:37.756Z,9.20
2023-02-11T02:21:37.199Z,8.60
2023-02-11T02:24:12.561Z,8.30
2023-02-11T02:27:03.450Z,8.20
2023-02-11T02:29:38.685Z,7.50
2023-02-11T02:32:27.178Z,8.00
2023-02-11T02:35:11.959Z,8.30
2023-02-11T02:37:48.493Z,7.90
2023-02-11T02:40:30.696Z,8.10
2023-02-11T02:42:59.977Z,8.30
2023-02-11T02:45:27.141Z,8.60
2023-02-11T02:47:54.935Z,8.50
2023-02-11T02:50:30.152Z,9.10
2023-02-11T02:53:05.869Z,8.10
2023-02-11T02:55:56.094Z,8.90
2023-02-11T02:58:47.382Z,9.20
2023-02-11T03:01:43.495Z,8.80
2023-02-11T03:04:37.333Z,8.20
2023-02-11T03:07:25.723Z,7.80
2023-02-11T03:10:01.566Z,8.60
2023-02-11T03:12:32.504Z,9.30
2023-02-11T03:15:01.460Z,8.70
2023-02-11T03:17:30.244Z,8.90
2023-02-11T03:19:58.596Z,9.10
2023-02-11T03:22:36.531Z,9.80
2023-02-11T03:25:04.264Z,9.60
2023-02-11T03:27:37.912Z,10.10
2023-02-11T03:30:16.512Z,9.00
2023-02-11T03:32:51.256Z,9.00
2023-02-11T03:35:39.496Z,10.40
2023-02-11T03:38:15.899Z,9.30
2023-02-11T03:40:45.556Z,9.00
2023-02-11T03:43:20.211Z,9.50
2023-02-11T03:45:50.560Z,9.80
2023-02-11T03:48:20.433Z,9.60
2023-02-11T03:50:49.821Z,10.40
2023-02-11T03:53:17.725Z,9.50
2023-02-11T03:55:47.404Z,10.20
2023-02-11T03:58:14.227Z,10.80
2023-02-11T04:00:43.070Z,10.10
2023-02-11T04:03:11.185Z,10.00
2023-02-11T04:05:39.037Z,10.80
2023-02-11T04:08:05.991Z,9.80
2023-02-11T04:10:32.925Z,10.60
2023-02-11T04:12:59.781Z,10.30
2023-02-11T04:15:26.585Z,9.10
2023-02-11T04:17:53.381Z,9.80
2023-02-11T04:20:20.399Z,9.10
2023-02-11T04:22:49.244Z,8.70
2023-02-11T04:25:15.971Z,8.40
2023-02-11T04:27:42.713Z,8.50
2023-02-11T04:30:10.127Z,10.30
2023-02-11T04:32:36.862Z,9.20
2023-02-11T04:35:05.035Z,8.90
2023-02-11T04:37:31.741Z,10.50
2023-02-11T04:39:58.465Z,10.80
2023-02-11T04:42:25.314Z,9.90
2023-02-11T04:44:51.977Z,9.40
2023-02-11T04:47:19.203Z,9.20
2023-02-11T04:49:45.948Z,9.00
2023-02-11T04:52:12.582Z,9.40
2023-02-11T04:54:39.454Z,10.20
2023-02-11T04:57:06.248Z,9.50
2023-02-11T04:59:32.922Z,10.70
2023-02-11T05:01:59.676Z,9.90
2023-02-11T05:04:26.375Z,9.40
2023-02-11T05:06:53.150Z,9.20
2023-02-11T05:09:19.848Z,9.70
2023-02-11T05:11:49.004Z,9.00
2023-02-11T05:14:15.749Z,9.40
2023-02-11T05:16:42.517Z,8.70
2023-02-11T05:19:09.323Z,9.70
2023-02-11T05:21:35.996Z,9.40
2023-02-11T05:24:04.043Z,9.70
2023-02-11T05:26:30.860Z,9.80
2023-02-11T05:28:57.671Z,8.80
2023-02-11T05:31:24.481Z,8.80
2023-02-11T05:33:51.298Z,9.60
2023-02-11T05:36:18.155Z,8.90
2023-02-11T05:38:45.004Z,9.40
2023-02-11T05:41:12.227Z,8.80
2023-02-11T05:43:39.764Z,10.20
2023-02-11T05:46:06.725Z,9.30
2023-02-11T05:48:33.748Z,8.80
2023-02-11T05:51:00.433Z,8.30
2023-02-11T05:53:27.182Z,9.10
2023-02-11T05:55:53.811Z,9.10
2023-02-11T05:58:20.479Z,9.30
2023-02-11T06:00:47.135Z,10.80
2023-02-11T06:03:13.934Z,9.70
2023-02-11T06:05:42.164Z,9.10
2023-02-11T06:08:08.829Z,9.00
2023-02-11T06:10:36.572Z,8.80
2023-02-11T06:13:03.380Z,8.60
2023-02-11T06:15:30.384Z,8.50
2023-02-11T06:17:57.144Z,9.30
2023-02-11T06:20:23.932Z,8.90
2023-02-11T06:22:50.639Z,8.60
2023-02-11T06:25:17.430Z,9.10
2023-02-11T06:27:44.268Z,9.60
2023-02-11T06:30:11.645Z,10.00
2023-02-11T06:32:44.580Z,9.20
2023-02-11T06:35:13.410Z,8.80
2023-02-11T06:37:41.954Z,8.90
2023-02-11T06:40:09.867Z,8.70
2023-02-11T06:42:38.735Z,8.70
2023-02-11T06:45:09.559Z,8.80
2023-02-11T06:47:36.809Z,8.60
2023-02-11T06:50:04.096Z,9.00
2023-02-11T06:52:30.885Z,10.10
2023-02-11T06:54:57.558Z,9.70
2023-02-11T06:57:24.227Z,10.40
2023-02-11T06:59:51.305Z,10.30
2023-02-11T07:02:20.621Z,10.30
2023-02-11T07:04:47.930Z,10.50
2023-02-11T07:07:14.728Z,10.90
2023-02-11T07:09:41.645Z,10.60
2023-02-11T07:12:10.384Z,10.70
2023-02-11T07:14:37.205Z,11.30
2023-02-11T07:17:04.850Z,11.20
2023-02-11T07:19:31.590Z,11.00
2023-02-11T07:21:58.298Z,10.50
2023-02-11T07:24:27.073Z,11.20
2023-02-11T07:26:54.389Z,11.10
2023-02-11T07:29:21.281Z,10.50
2023-02-11T07:31:48.096Z,10.20
2023-02-11T07:34:14.981Z,10.20
2023-02-11T07:36:43.676Z,10.40
2023-02-11T07:39:10.924Z,10.60
2023-02-11T07:41:38.455Z,11.60
2023-02-11T07:44:05.823Z,11.20
2023-02-11T07:46:34.592Z,10.70
2023-02-11T07:49:01.467Z,10.20
2023-02-11T07:51:30.038Z,10.70
2023-02-11T07:53:58.430Z,10.90
2023-02-11T07:56:25.235Z,11.10
2023-02-11T07:58:52.469Z,11.00
2023-02-11T08:01:26.018Z,10.60
2023-02-11T08:03:53.777Z,10.60
2023-02-11T08:06:22.153Z,10.90
2023-02-11T08:08:49.604Z,11.00
2023-02-11T08:11:24.699Z,10.80
2023-02-11T08:13:52.683Z,10.90
2023-02-11T08:16:31.559Z,10.70
2023-02-11T08:19:02.381Z,10.30
2023-02-11T08:21:29.510Z,10.30
2023-02-11T08:23:56.977Z,10.70
2023-02-11T08:26:27.070Z,10.50
2023-02-11T08:28:55.489Z,10.20
2023-02-11T08:31:25.473Z,10.30
2023-02-11T08:33:54.553Z,10.90
2023-02-11T08:36:25.232Z,11.00
2023-02-11T08:38:57.083Z,9.40
2023-02-11T08:41:27.270Z,8.70
2023-02-11T08:43:54.022Z,9.00
2023-02-11T08:46:21.054Z,9.10
2023-02-11T08:48:47.998Z,9.10
2023-02-11T08:51:20.772Z,9.10
2023-02-11T08:53:47.693Z,9.10
2023-02-11T08:56:15.468Z,9.50
2023-02-11T08:58:42.753Z,9.40
2023-02-11T09:01:13.686Z,10.20
2023-02-11T09:03:40.529Z,9.80
2023-02-11T09:06:08.975Z,10.10
2023-02-11T09:08:40.533Z,10.40
2023-02-11T09:11:08.113Z,10.10
2023-02-11T09:13:35.530Z,10.40
2023-02-11T09:16:04.641Z,10.70
2023-02-11T09:18:32.562Z,10.10
2023-02-11T09:21:07.964Z,11.00
2023-02-11T09:23:36.052Z,10.50
2023-02-11T09:26:10.865Z,10.30
2023-02-11T09:28:37.648Z,10.60
2023-02-11T09:31:16.565Z,10.50
2023-02-11T09:33:48.559Z,11.30
2023-02-11T09:36:23.113Z,10.80
2023-02-11T09:38:51.299Z,10.70
2023-02-11T09:41:23.926Z,10.40
2023-02-11T09:43:56.688Z,10.80
2023-02-11T09:46:30.541Z,11.00
2023-02-11T09:48:57.695Z,11.30
2023-02-11T09:51:39.675Z,11.50
2023-02-11T09:54:15.725Z,11.40
2023-02-11T09:56:42.463Z,11.50
2023-02-11T09:59:15.848Z,11.30
2023-02-11T10:01:50.154Z,11.40
2023-02-11T10:04:40.904Z,11.50
2023-02-11T10:07:25.453Z,11.50
2023-02-11T10:10:21.932Z,11.60
2023-02-11T10:13:14.488Z,12.60
2023-02-11T10:16:13.764Z,12.00
2023-02-11T10:19:09.723Z,11.70
2023-02-11T10:21:41.435Z,11.90
2023-02-11T10:24:14.374Z,11.90
2023-02-11T10:26:41.781Z,12.40
2023-02-11T10:29:24.359Z,12.80
2023-02-11T10:31:51.492Z,12.40
2023-02-11T10:34:19.332Z,11.80
2023-02-11T10:36:47.041Z,12.10
2023-02-11T10:39:17.503Z,12.80
2023-02-11T10:41:49.197Z,13.60
2023-02-11T10:44:38.221Z,13.20
2023-02-11T10:47:16.889Z,12.30
2023-02-11T10:49:45.643Z,12.20
2023-02-11T10:52:22.749Z,11.70
2023-02-11T10:54:56.740Z,11.80
2023-02-11T10:57:28.860Z,11.50
2023-02-11T11:00:04.286Z,11.30
2023-02-11T11:02:34.620Z,11.50
2023-02-11T11:05:16.380Z,11.40
2023-02-11T11:07:56.953Z,11.80
2023-02-11T11:10:35.664Z,12.00
2023-02-11T11:13:02.717Z,12.00
2023-02-11T11:15:31.394Z,11.70
2023-02-11T11:18:22.305Z,12.10
2023-02-11T11:21:20.383Z,11.80
2023-02-11T11:23:56.115Z,11.50
2023-02-11T11:26:24.843Z,11.70
2023-02-11T11:28:53.792Z,11.80
2023-02-11T11:31:32.968Z,11.90
2023-02-11T11:34:03.539Z,12.00
2023-02-11T11:36:38.047Z,12.50
2023-02-11T11:39:17.981Z,12.50
2023-02-11T11:41:53.915Z,12.60
2023-02-11T11:44:40.140Z,11.70
2023-02-11T11:47:18.335Z,12.30
2023-02-11T11:50:11.865Z,12.50
2023-02-11T11:52:46.822Z,12.30
2023-02-11T11:55:18.904Z,12.10
2023-02-11T11:57:46.052Z,12.70
2023-02-11T12:00:21.788Z,12.30
2023-02-11T12:04:09.402Z,12.00
2023-02-11T12:06:35.391Z,12.40
2023-02-11T12:09:13.973Z,13.10
2023-02-11T12:11:58.960Z,12.50
2023-02-11T12:14:37.715Z,12.40
2023-02-11T12:17:14.197Z,11.80
2023-02-11T12:20:05.705Z,11.90
2023-02-11T12:22:56.273Z,12.20
2023-02-11T12:25:32.129Z,12.40
2023-02-11T12:28:07.458Z,12.20
2023-02-11T12:31:17.373Z,12.70
2023-02-11T12:34:17.878Z,13.10
2023-02-11T12:36:56.647Z,13.30
2023-02-11T12:39:40.197Z,12.70
2023-02-11T12:42:52.223Z,12.50
2023-02-11T12:45:49.469Z,13.10
2023-02-11T12:48:38.990Z,12.90
2023-02-11T12:51:26.576Z,12.80
2023-02-11T12:54:14.597Z,12.70
2023-02-11T12:57:02.606Z,13.00
2023-02-11T12:59:35.144Z,12.70
2023-02-11T13:02:12.484Z,12.90
2023-02-11T13:04:43.281Z,13.00
2023-02-11T13:07:19.293Z,12.60
2023-02-11T13:09:52.770Z,12.90
2023-02-11T13:12:55.068Z,12.60
2023-02-11T13:15:21.872Z,12.80
2023-02-11T13:18:19.083Z,12.60
2023-02-11T13:21:08.943Z,12.70
2023-02-11T13:23:41.236Z,12.60
2023-02-11T13:26:18.906Z,12.90
2023-02-11T13:29:02.319Z,12.40
2023-02-11T13:31:30.177Z,12.70
2023-02-11T13:33:56.991Z,12.60
2023-02-11T13:36:26.327Z,13.30
2023-02-11T13:39:20.635Z,13.00
2023-02-11T13:41:52.522Z,12.70
2023-02-11T13:44:23.628Z,12.50
2023-02-11T13:46:50.753Z,12.80
2023-02-11T13:49:40.860Z,13.20
2023-02-11T13:52:30.743Z,13.20
2023-02-11T13:55:06.125Z,13.00
2023-02-11T13:57:35.819Z,12.90
2023-02-11T14:00:27.703Z,12.80
2023-02-11T14:03:31.100Z,12.90
2023-02-11T14:06:29.899Z,13.20
2023-02-11T14:09:07.407Z,13.10
2023-02-11T14:11:34.089Z,12.90
2023-02-11T14:14:18.848Z,12.80
2023-02-11T14:17:07.651Z,13.00
2023-02-11T14:19:45.607Z,13.00
2023-02-11T14:22:19.596Z,12.80
2023-02-11T14:24:55.124Z,13.10
2023-02-11T14:27:26.031Z,13.10
2023-02-11T14:30:06.804Z,13.10
2023-02-11T14:32:54.353Z,12.80
2023-02-11T14:35:32.000Z,12.80
2023-02-11T14:38:16.623Z,13.10
2023-02-11T14:41:01.820Z,13.00
2023-02-11T14:43:34.688Z,13.20
2023-02-11T14:46:02.729Z,13.00
2023-02-11T14:48:36.052Z,12.90
2023-02-11T14:51:27.115Z,12.90
2023-02-11T14:53:59.236Z,12.90
2023-02-11T14:56:34.355Z,12.90
2023-02-11T14:59:02.688Z,13.10
2023-02-11T15:01:35.734Z,12.60
2023-02-11T15:04:05.575Z,12.70
2023-02-11T15:06:41.038Z,12.60
2023-02-11T15:09:17.118Z,12.70
2023-02-11T15:11:46.561Z,12.70
2023-02-11T15:14:22.566Z,12.60
2023-02-11T15:16:53.994Z,12.60
2023-02-11T15:19:36.512Z,12.60
2023-02-11T15:22:18.753Z,12.70
2023-02-11T15:24:45.980Z,12.50
2023-02-11T15:27:15.479Z,13.10
2023-02-11T15:29:46.632Z,13.80
2023-02-11T15:32:16.846Z,13.30
2023-02-11T15:34:45.547Z,12.60
2023-02-11T15:37:26.847Z,12.50
2023-02-11T15:39:55.111Z,12.70
2023-02-11T15:42:40.818Z,12.90
2023-02-11T15:45:15.069Z,12.30
2023-02-11T15:47:52.133Z,12.30
2023-02-11T15:50:30.834Z,12.10
2023-02-11T15:53:00.859Z,12.50
2023-02-11T15:55:29.058Z,12.50
2023-02-11T15:57:59.757Z,12.20
2023-02-11T16:00:36.597Z,12.50
2023-02-11T16:03:04.507Z,12.50
2023-02-11T16:05:36.989Z,12.00
2023-02-11T16:08:29.203Z,12.10
2023-02-11T16:11:08.899Z,12.20
2023-02-11T16:13:47.775Z,12.80
2023-02-11T16:16:26.500Z,13.00
2023-02-11T16:19:04.658Z,12.80
2023-02-11T16:21:39.276Z,12.50
2023-02-11T16:24:07.984Z,12.50
2023-02-11T16:26:46.869Z,12.60
2023-02-11T16:29:17.131Z,12.30
2023-02-11T16:31:50.645Z,12.50
2023-02-11T16:34:23.687Z,12.70
2023-02-11T16:36:51.950Z,12.80
2023-02-11T16:39:23.516Z,12.40
2023-02-11T16:41:51.229Z,12.30
2023-02-11T16:44:18.529Z,12.30
2023-02-11T16:46:45.644Z,12.20
2023-02-11T16:49:16.413Z,12.30
2023-02-11T16:51:44.426Z,12.20
2023-02-11T16:54:16.054Z,12.30
2023-02-11T16:56:43.337Z,12.30
2023-02-11T16:59:10.067Z,12.10
2023-02-11T17:01:38.827Z,12.10
2023-02-11T17:04:07.435Z,12.00
2023-02-11T17:06:34.935Z,12.10
2023-02-11T17:09:01.829Z,12.20
2023-02-11T17:11:29.548Z,12.00
2023-02-11T17:13:56.397Z,12.30
2023-02-11T17:16:25.043Z,12.20
2023-02-11T17:18:51.885Z,12.10
2023-02-11T17:21:18.728Z,12.30
2023-02-11T17:23:46.066Z,12.40
2023-02-11T17:26:12.913Z,12.50
2023-02-11T17:28:40.649Z,12.40
2023-02-11T17:31:09.022Z,12.50
2023-02-11T17:33:36.359Z,12.10
2023-02-11T17:36:08.070Z,12.10
2023-02-11T17:38:35.871Z,12.20
2023-02-11T17:41:04.669Z,11.90
2023-02-11T17:43:31.975Z,11.90
2023-02-11T17:45:59.772Z,12.30
2023-02-11T17:48:26.546Z,12.30
2023-02-11T17:50:53.565Z,11.30
2023-02-11T17:53:20.255Z,10.00
2023-02-11T17:55:48.122Z,9.60
2023-02-11T17:58:15.064Z,9.40
2023-02-11T18:00:42.885Z,9.90
2023-02-11T18:03:09.643Z,11.10
2023-02-11T18:05:37.626Z,11.60
2023-02-11T18:08:06.512Z,11.70
2023-02-11T18:10:34.077Z,11.80
2023-02-11T18:13:01.714Z,11.80
2023-02-11T18:15:28.451Z,11.80
2023-02-11T18:17:56.006Z,11.60
2023-02-11T18:20:22.726Z,11.70
2023-02-11T18:22:49.679Z,11.90
2023-02-11T18:25:16.509Z,12.00
2023-02-11T18:27:43.376Z,11.80
2023-02-11T18:30:19.932Z,12.10
2023-02-11T18:32:46.612Z,12.10
2023-02-11T18:35:15.201Z,11.90
2023-02-11T18:37:42.627Z,11.80
2023-02-11T18:40:10.729Z,11.90
2023-02-11T18:42:37.607Z,12.10
2023-02-11T18:45:12.034Z,12.20
2023-02-11T18:47:39.288Z,12.10
2023-02-11T18:50:07.362Z,11.90
2023-02-11T18:52:38.071Z,12.10
2023-02-11T18:55:06.462Z,12.20
2023-02-11T18:57:33.233Z,12.00
2023-02-11T19:00:00.236Z,12.00
2023-02-11T19:02:28.558Z,12.00
2023-02-11T19:04:55.253Z,12.00
2023-02-11T19:07:21.993Z,12.00
2023-02-11T19:09:49.037Z,12.10
2023-02-11T19:12:15.783Z,11.90
2023-02-11T19:14:42.704Z,12.00
2023-02-11T19:17:12.082Z,12.10
2023-02-11T19:19:39.006Z,12.10
2023-02-11T19:22:08.571Z,12.10
2023-02-11T19:24:37.269Z,12.10
2023-02-11T19:27:05.236Z,12.20
2023-02-11T19:29:35.087Z,12.00
2023-02-11T19:32:03.987Z,11.90
2023-02-11T19:34:30.692Z,11.80
2023-02-11T19:36:59.590Z,11.70
2023-02-11T19:39:26.379Z,11.80
2023-02-11T19:41:53.690Z,11.70
2023-02-11T19:44:20.467Z,11.70
2023-02-11T19:46:48.788Z,11.90
2023-02-11T19:49:17.731Z,11.90
2023-02-11T19:51:44.470Z,11.60
2023-02-11T19:54:11.105Z,11.90
2023-02-11T19:56:37.977Z,12.20
2023-02-11T19:59:04.897Z,12.10
2023-02-11T20:01:31.724Z,12.10
2023-02-11T20:03:58.590Z,12.10
2023-02-11T20:06:30.776Z,12.10
2023-02-11T20:09:03.300Z,11.90
2023-02-11T20:11:31.573Z,12.00
2023-02-11T20:13:58.810Z,12.20
2023-02-11T20:16:44.551Z,12.30
2023-02-11T20:19:17.543Z,12.20
2023-02-11T20:21:47.073Z,12.10
2023-02-11T20:24:15.172Z,12.10
2023-02-11T20:26:42.539Z,12.10
2023-02-11T20:29:09.488Z,12.10
2023-02-11T20:31:36.449Z,12.30
2023-02-11T20:34:03.780Z,12.20
2023-02-11T20:36:32.621Z,12.30
2023-02-11T20:39:00.127Z,12.30
2023-02-11T20:41:30.845Z,12.30
2023-02-11T20:44:01.002Z,12.20
2023-02-11T20:46:29.394Z,12.10
2023-02-11T20:48:57.185Z,12.10
2023-02-11T20:51:29.787Z,11.90
2023-02-11T20:53:57.365Z,12.10
2023-02-11T20:56:26.481Z,12.20
2023-02-11T20:58:53.655Z,12.30
2023-02-11T21:01:23.566Z,12.30
2023-02-11T21:03:56.501Z,12.20
2023-02-11T21:06:27.018Z,12.20
2023-02-11T21:08:54.264Z,12.10
2023-02-11T21:11:21.306Z,12.20
2023-02-11T21:13:48.677Z,12.10
2023-02-11T21:16:20.337Z,12.20
2023-02-11T21:18:47.779Z,12.40
2023-02-11T21:21:16.199Z,12.50
2023-02-11T21:23:42.954Z,12.60
2023-02-11T21:26:10.384Z,12.10
2023-02-11T21:28:40.523Z,11.90
2023-02-11T21:31:07.792Z,12.00
2023-02-11T21:33:34.734Z,12.00
2023-02-11T21:36:04.483Z,12.00
2023-02-11T21:38:31.589Z,12.30
2023-02-11T21:41:08.202Z,12.20
2023-02-11T21:43:35.057Z,11.90
2023-02-11T21:46:10.505Z,12.10
2023-02-11T21:48:37.463Z,11.70
2023-02-11T21:51:09.508Z,11.30
2023-02-11T21:53:36.381Z,11.30
2023-02-11T21:56:14.828Z,11.50
2023-02-11T21:58:41.704Z,11.70
2023-02-11T22:01:18.787Z,11.60
2023-02-11T22:03:46.340Z,11.80
2023-02-11T22:06:16.865Z,11.90
2023-02-11T22:08:43.957Z,12.00
2023-02-11T22:11:12.462Z,12.00
2023-02-11T22:13:40.546Z,12.00
2023-02-11T22:16:13.486Z,11.90
2023-02-11T22:18:40.633Z,11.90
2023-02-11T22:21:22.222Z,12.00
2023-02-11T22:23:49.770Z,12.10
2023-02-11T22:26:21.150Z,12.00
2023-02-11T22:28:48.472Z,12.00
2023-02-11T22:31:22.063Z,11.90
2023-02-11T22:33:49.065Z,12.00
2023-02-11T22:36:20.405Z,11.90
2023-02-11T22:38:47.212Z,11.80
2023-02-11T22:41:14.013Z,11.90
2023-02-11T22:43:42.816Z,11.90
2023-02-11T22:46:15.119Z,12.00
2023-02-11T22:48:42.134Z,12.10
2023-02-11T22:51:20.894Z,12.10
2023-02-11T22:53:53.018Z,12.10
2023-02-11T22:56:20.508Z,12.10
2023-02-11T22:58:47.924Z,11.90
2023-02-11T23:01:15.533Z,12.00
2023-02-11T23:03:42.460Z,12.00
2023-02-11T23:06:11.482Z,12.10
2023-02-11T23:08:40.165Z,12.00
2023-02-11T23:11:12.823Z,12.00
2023-02-11T23:13:41.352Z,12.00
2023-02-11T23:16:11.452Z,12.00
2023-02-11T23:18:40.037Z,12.10
2023-02-11T23:21:12.376Z,12.20
2023-02-11T23:23:39.874Z,12.10
2023-02-11T23:26:10.870Z,12.00
2023-02-11T23:28:38.366Z,11.90
2023-02-11T23:31:27.887Z,12.00
2023-02-11T23:33:54.989Z,12.10
2023-02-11T23:36:22.572Z,12.00
2023-02-11T23:38:49.615Z,12.00
2023-02-11T23:41:16.872Z,12.10
2023-02-11T23:43:43.965Z,12.00
2023-02-11T23:46:10.794Z,11.90
2023-02-11T23:48:37.785Z,11.90
2023-02-11T23:51:04.904Z,12.10
2023-02-11T23:53:31.600Z,12.00
2023-02-11T23:55:58.472Z,12.00
2023-02-11T23:58:26.319Z,12.10
